KBMG/BMG METAR and TAF weather

Enter ICAO airport designator
Station Type Date Time Source
KBMG METAR 2020/12/06 01:53 UTC NOAA

KBMG 060153Z 08005KT 10SM CLR M01/M04 A3010 RMK AO2 SLP201 T10061039


Station Type Date Time Source
KBMG Decoded METAR 2020/12/06 01:53 UTC NOAA

MONROE COUNTY AIRPORT, IN, United States (KBMG) 39-09N 086-37W 257M
Dec 05, 2020 - 08:53 PM EST / 2020.12.06 0153 UTC
Wind: from the E (080 degrees) at 6 MPH (5 KT):0
Visibility: 10 mile(s):0
Sky conditions: clear
Temperature: 30.9 F (-0.6 C)
Windchill: 24 F (-4 C):1
Dew Point: 25.0 F (-3.9 C)
Relative Humidity: 78%
Pressure (altimeter): 30.1 in. Hg (1019 hPa)
ob: KBMG 060153Z 08005KT 10SM CLR M01/M04 A3010 RMK AO2 SLP201 T10061039
cycle: 2

Station Type Date Time Source
KBMG TAF 2020/12/05 18:27 UTC NOAA

TAF KBMG 051725Z 0518/0618 01006KT P6SM SKC
FM060100 00000KT P6SM SCT250
FM061000 VRB03KT P6SM BKN090
FM061600 VRB03KT P6SM BKN050

Example: see airport list